X  CloseMetar Aviation Weather Data     EGGD Bristol Airport

Temperature

14°C Temperature

10°C Dewpoint

77% Humidity



Wind

10 KM/H

 6 MPH

 3 M/S

 5 KTS



90°
Due East
Current Conditions

Overcast Overcast
Pressure 1014.92 (hPa) - 29.97 (in)
Visibility 6.2 (mi) - 10 (km)
Airport
Airport-code EGGD

Location Bristol Airport 9 (mi)

Metar:
EGGD 191050Z AUTO 09005KT 9999 OVC013 14/10 Q1015

Time: 2021-06-19 11:50